Terminal Aerodrome Forecast
Issued by NWS

Home | Current Version | Previous Version | Text Only | Print | Product List | Glossary On
Versions: 1 2 3 4 5 6 7 8 9 10 11 12
000
FTUS41 KBTV 050520
TAFMPV
TAF
KMPV 050520Z 0506/0606 24007KT P6SM BKN045 OVC060
     FM051000 31007KT P6SM BKN080
     FM051200 33009KT P6SM SCT200
     FM060000 VRB05KT P6SM SKC=

USA.gov is the U.S. government's official web portal to all federal, state and local government web resources and services.